Time;durP1;ratioP1;P1;durP2;ratioP2;P2;SDS_P1;SDS_P2;PMS_P1;PMS_P2;Temp;Humidity;BMP_temperature;BMP_pressure;BME280_temperature;BME280_humidity;BME280_pressure;Samples;Min_cycle;Max_cycle;Signal;HPM_P1;HPM_P2
2023/05/06 00:01:04;;;;;;;2.55;1.40;;;10.30;99.90;;;;;;5026673;28;20183;-89
2023/05/06 00:03:30;;;;;;;2.45;1.38;;;10.40;99.90;;;;;;5008000;28;20026;-88
2023/05/06 00:05:56;;;;;;;2.53;1.35;;;10.30;99.90;;;;;;5006654;28;20026;-90
2023/05/06 00:08:21;;;;;;;2.03;1.15;;;10.10;99.90;;;;;;5025393;28;20470;-89
2023/05/06 00:10:47;;;;;;;3.28;1.63;;;10.10;99.90;;;;;;5025913;28;20048;-89
2023/05/06 00:13:12;;;;;;;2.60;1.15;;;10.10;99.90;;;;;;5025099;28;20042;-89
2023/05/06 00:15:38;;;;;;;2.78;1.73;;;9.90;99.90;;;;;;5025281;28;20030;-90
2023/05/06 00:18:05;;;;;;;2.60;1.33;;;9.90;99.90;;;;;;5009419;28;20067;-89
2023/05/06 00:20:31;;;;;;;3.20;1.55;;;10.00;99.90;;;;;;5011847;28;20124;-88
2023/05/06 00:22:58;;;;;;;2.45;1.33;;;10.10;99.90;;;;;;5014952;28;20080;-89
2023/05/06 00:25:26;;;;;;;2.28;1.42;;;10.10;99.90;;;;;;5028583;28;20123;-90
2023/05/06 00:27:52;;;;;;;2.63;1.55;;;9.90;99.90;;;;;;5014364;28;20079;-89
2023/05/06 00:30:18;;;;;;;3.15;1.55;;;9.90;99.90;;;;;;5043087;28;20034;-89
2023/05/06 00:32:43;;;;;;;3.65;1.65;;;9.80;99.90;;;;;;5046090;28;20607;-89
2023/05/06 00:35:10;;;;;;;3.30;1.98;;;9.80;99.90;;;;;;5058011;28;20025;-89
2023/05/06 00:37:36;;;;;;;2.17;1.38;;;9.80;99.90;;;;;;5029370;28;20048;-89
2023/05/06 00:40:02;;;;;;;2.95;1.95;;;9.90;99.90;;;;;;5032368;28;20085;-89
2023/05/06 00:42:28;;;;;;;2.75;1.83;;;9.90;99.90;;;;;;5014062;28;20021;-89
2023/05/06 00:44:53;;;;;;;3.13;2.45;;;10.00;99.90;;;;;;5015256;28;20252;-89
2023/05/06 00:47:21;;;;;;;2.72;1.77;;;10.00;99.90;;;;;;5013288;28;20497;-89
2023/05/06 00:49:48;;;;;;;2.70;1.70;;;10.00;99.90;;;;;;5010951;28;20033;-90
2023/05/06 00:52:16;;;;;;;2.60;1.80;;;10.10;99.90;;;;;;5014478;28;20025;-89
2023/05/06 00:54:42;;;;;;;2.70;1.90;;;10.10;99.90;;;;;;5013546;28;20041;-89
2023/05/06 00:57:08;;;;;;;2.67;2.00;;;10.10;99.90;;;;;;5012686;28;20029;-89
2023/05/06 00:59:34;;;;;;;3.03;2.05;;;10.10;99.90;;;;;;5025548;28;20127;-89
2023/05/06 01:02:00;;;;;;;2.78;2.03;;;10.20;99.90;;;;;;5029416;28;20056;-89
2023/05/06 01:04:27;;;;;;;3.67;2.15;;;10.20;99.90;;;;;;5044447;28;20052;-89
2023/05/06 01:06:57;;;;;;;3.38;2.05;;;10.30;99.90;;;;;;5048297;28;20036;-89
2023/05/06 01:09:41;;;;;;;;;;;10.30;99.90;;;;;;5064037;28;20481;-89
2023/05/06 01:12:26;;;;;;;2.92;1.67;;;10.40;99.90;;;;;;5033021;28;19991;-89
2023/05/06 01:15:31;;;;;;;2.95;2.10;;;10.30;99.90;;;;;;5065731;28;20048;-88
2023/05/06 01:17:59;;;;;;;3.92;2.42;;;10.30;99.90;;;;;;5048972;28;20026;-89
2023/05/06 01:20:25;;;;;;;3.85;2.70;;;10.40;99.90;;;;;;5080716;28;20041;-89
2023/05/06 01:22:52;;;;;;;4.18;3.08;;;10.40;99.90;;;;;;5046513;28;20077;-89
2023/05/06 01:25:22;;;;;;;4.28;2.60;;;10.20;99.90;;;;;;5063972;28;20025;-89
2023/05/06 01:27:49;;;;;;;3.75;3.22;;;10.40;99.90;;;;;;5063083;28;20029;-89
2023/05/06 01:30:17;;;;;;;3.88;3.03;;;10.50;99.90;;;;;;5066173;28;20037;-90
2023/05/06 01:33:24;;;;;;;4.53;3.33;;;10.40;99.90;;;;;;5066754;28;20527;-89
2023/05/06 01:36:07;;;;;;;4.30;3.40;;;10.60;99.90;;;;;;5031041;28;20186;-90
2023/05/06 01:38:53;;;;;;;5.35;3.88;;;10.70;99.90;;;;;;5048727;28;20056;-89
2023/05/06 01:41:21;;;;;;;4.75;3.25;;;10.70;99.90;;;;;;5048155;28;20078;-89
2023/05/06 01:43:48;;;;;;;6.15;4.20;;;10.80;99.90;;;;;;5028065;28;20025;-89
2023/05/06 01:46:18;;;;;;;5.82;4.43;;;10.90;99.90;;;;;;5062367;28;20072;-90
2023/05/06 01:48:45;;;;;;;5.22;4.38;;;10.80;99.90;;;;;;5062884;28;20021;-89
2023/05/06 01:51:11;;;;;;;6.28;4.75;;;10.70;99.90;;;;;;5030775;28;20047;-90
2023/05/06 01:53:37;;;;;;;6.03;4.80;;;10.80;99.90;;;;;;5080043;28;20017;-89
2023/05/06 01:56:03;;;;;;;6.93;5.05;;;10.70;99.90;;;;;;5081323;28;20231;-89
2023/05/06 01:58:29;;;;;;;8.23;5.85;;;10.70;99.90;;;;;;5048374;28;20498;-90
2023/05/06 02:00:55;;;;;;;6.85;5.03;;;10.70;99.90;;;;;;5045160;28;20059;-90
2023/05/06 02:03:20;;;;;;;6.40;5.32;;;10.60;99.90;;;;;;5031699;28;20029;-90
2023/05/06 02:05:46;;;;;;;6.18;5.00;;;10.80;99.90;;;;;;5026204;28;20029;-89
2023/05/06 02:08:12;;;;;;;5.72;4.88;;;10.80;99.90;;;;;;5028594;28;20029;-90
2023/05/06 02:10:38;;;;;;;6.72;5.32;;;10.70;99.90;;;;;;5047749;28;20245;-89
2023/05/06 02:13:08;;;;;;;6.60;4.78;;;10.70;99.90;;;;;;5047029;28;20029;-89
2023/05/06 02:15:33;;;;;;;6.97;5.40;;;10.60;99.90;;;;;;5061016;28;20060;-89
2023/05/06 02:17:59;;;;;;;6.57;5.03;;;10.70;99.90;;;;;;5066334;28;20098;-89
2023/05/06 02:20:25;;;;;;;6.60;4.35;;;10.60;99.90;;;;;;5031215;28;20507;-90
2023/05/06 02:22:51;;;;;;;6.13;5.20;;;10.50;99.90;;;;;;5046177;28;20021;-89
2023/05/06 02:25:17;;;;;;;6.97;5.05;;;10.40;99.90;;;;;;5044314;28;20362;-89
2023/05/06 02:27:44;;;;;;;6.53;4.95;;;10.30;99.90;;;;;;5066122;28;20052;-89
2023/05/06 02:30:10;;;;;;;7.25;5.65;;;10.20;99.90;;;;;;5048344;28;20466;-89
2023/05/06 02:32:36;;;;;;;7.25;5.63;;;10.20;99.90;;;;;;5028996;28;20116;-90
2023/05/06 02:35:02;;;;;;;6.63;5.60;;;10.20;99.90;;;;;;5030261;28;20111;-89
2023/05/06 02:37:28;;;;;;;7.38;5.90;;;10.20;99.90;;;;;;5078188;28;20384;-89
2023/05/06 02:39:54;;;;;;;6.72;5.00;;;10.10;99.90;;;;;;5064602;28;20037;-89
2023/05/06 02:42:20;;;;;;;6.72;5.10;;;10.20;99.90;;;;;;5047486;28;20056;-89
2023/05/06 02:44:46;;;;;;;6.43;4.68;;;10.20;99.90;;;;;;5030777;28;20210;-89
2023/05/06 02:47:12;;;;;;;6.03;4.90;;;10.20;99.90;;;;;;5027995;28;20075;-89
2023/05/06 02:49:37;;;;;;;4.80;4.05;;;10.20;99.90;;;;;;5031373;28;20037;-90
2023/05/06 02:52:03;;;;;;;4.97;4.30;;;10.10;99.90;;;;;;5065751;28;20048;-90
2023/05/06 02:54:29;;;;;;;6.43;4.97;;;10.00;99.90;;;;;;5065925;28;20060;-90
2023/05/06 02:56:55;;;;;;;5.80;4.20;;;10.00;99.90;;;;;;5065198;28;20474;-90
2023/05/06 02:59:21;;;;;;;5.70;4.90;;;10.10;99.90;;;;;;5042824;28;20064;-89
2023/05/06 03:01:47;;;;;;;6.40;4.82;;;10.00;99.90;;;;;;5029112;28;20075;-89
2023/05/06 03:04:12;;;;;;;7.07;5.15;;;10.10;99.90;;;;;;5045235;28;20035;-90
2023/05/06 03:06:38;;;;;;;5.85;4.95;;;10.20;99.90;;;;;;5041937;28;20122;-89
2023/05/06 03:09:04;;;;;;;7.20;5.65;;;10.20;99.90;;;;;;5031549;28;20030;-89
2023/05/06 03:11:31;;;;;;;5.18;4.32;;;10.10;99.90;;;;;;5047344;28;20052;-89
2023/05/06 03:14:00;;;;;;;;;;;10.10;99.90;;;;;;5056616;28;20057;-89
2023/05/06 03:16:29;;;;;;;5.85;4.60;;;10.10;99.90;;;;;;5026044;28;19912;-90
2023/05/06 03:18:57;;;;;;;5.47;4.53;;;10.10;99.90;;;;;;5042223;28;20045;-90
2023/05/06 03:21:23;;;;;;;5.03;4.05;;;10.10;99.90;;;;;;5047345;28;20119;-89
2023/05/06 03:23:51;;;;;;;5.60;4.35;;;10.00;99.90;;;;;;5025942;28;20017;-90
2023/05/06 03:26:20;;;;;;;4.82;4.30;;;9.90;99.90;;;;;;5061435;28;20036;-90
2023/05/06 03:28:46;;;;;;;5.10;3.42;;;9.80;99.90;;;;;;5064631;28;20047;-90
2023/05/06 03:31:13;;;;;;;5.07;4.38;;;9.60;99.90;;;;;;5063929;28;20089;-90
2023/05/06 03:33:39;;;;;;;5.82;4.75;;;9.60;99.90;;;;;;5043278;28;20108;-90
2023/05/06 03:36:06;;;;;;;5.82;4.78;;;9.70;99.90;;;;;;5045464;28;20033;-90
2023/05/06 03:38:33;;;;;;;6.35;4.57;;;9.70;99.90;;;;;;5044096;28;20025;-89
2023/05/06 03:41:01;;;;;;;5.13;3.95;;;9.60;99.90;;;;;;5028980;28;20042;-90
2023/05/06 03:43:27;;;;;;;4.10;3.38;;;9.60;99.90;;;;;;5064421;28;20052;-90
2023/05/06 03:45:57;;;;;;;;;;;9.50;99.90;;;;;;5027984;28;20370;-89
2023/05/06 03:48:23;;;;;;;4.15;3.38;;;9.30;99.90;;;;;;5030997;28;19959;-89
2023/05/06 03:50:50;;;;;;;4.88;3.25;;;9.20;99.90;;;;;;5064203;28;20055;-89
2023/05/06 03:53:17;;;;;;;5.72;4.53;;;9.30;99.90;;;;;;5044022;28;20024;-89
2023/05/06 03:55:45;;;;;;;8.80;5.05;;;9.40;99.90;;;;;;5027259;28;20037;-89
2023/05/06 03:58:12;;;;;;;5.80;4.68;;;9.30;99.90;;;;;;5026171;28;20048;-90
2023/05/06 04:00:40;;;;;;;5.35;4.00;;;9.10;99.90;;;;;;5045402;28;20053;-90
2023/05/06 04:03:06;;;;;;;4.82;4.18;;;9.10;99.90;;;;;;5040573;28;20075;-90
2023/05/06 04:05:39;;;;;;;6.10;3.85;;;9.00;99.90;;;;;;5031443;28;20040;-89
2023/05/06 04:08:06;;;;;;;6.57;4.95;;;9.20;99.90;;;;;;5065026;28;20036;-89
2023/05/06 04:10:37;;;;;;;5.40;4.57;;;9.20;99.90;;;;;;5045740;28;20386;-89
2023/05/06 04:13:06;;;;;;;6.28;4.93;;;9.20;99.90;;;;;;5060763;28;20029;-90
2023/05/06 04:15:40;;;;;;;4.30;3.35;;;9.20;99.90;;;;;;5026029;28;20028;-89
2023/05/06 04:18:08;;;;;;;8.95;4.07;;;9.30;99.90;;;;;;5074558;28;20542;-90
2023/05/06 04:20:36;;;;;;;5.90;4.60;;;9.30;99.90;;;;;;5040268;28;20124;-89
2023/05/06 04:23:01;;;;;;;6.20;5.18;;;9.20;99.90;;;;;;5064045;28;20112;-89
2023/05/06 04:25:28;;;;;;;7.32;5.05;;;9.30;99.90;;;;;;5063411;28;20030;-89
2023/05/06 04:27:55;;;;;;;7.80;5.43;;;9.20;99.90;;;;;;5062639;28;20082;-89
2023/05/06 04:30:21;;;;;;;8.45;4.05;;;9.20;99.90;;;;;;5027760;28;20021;-88
2023/05/06 04:32:49;;;;;;;5.72;4.13;;;9.30;99.90;;;;;;5028430;28;20025;-89
2023/05/06 04:35:15;;;;;;;4.18;3.78;;;9.30;99.90;;;;;;5028160;28;20029;-89
2023/05/06 04:37:42;;;;;;;3.45;2.85;;;9.30;99.90;;;;;;5064461;28;20020;-90
2023/05/06 04:40:13;;;;;;;3.25;2.72;;;9.30;99.90;;;;;;5046560;28;20033;-89
2023/05/06 04:42:41;;;;;;;3.65;2.95;;;9.30;99.90;;;;;;5023275;28;20029;-89
2023/05/06 04:45:13;;;;;;;3.22;2.78;;;9.30;99.90;;;;;;5060417;28;20036;-89
2023/05/06 04:47:42;;;;;;;3.55;2.95;;;9.30;99.90;;;;;;5026871;28;20028;-90
2023/05/06 04:50:09;;;;;;;3.42;3.13;;;9.40;99.90;;;;;;5025265;28;20038;-89
2023/05/06 04:52:35;;;;;;;3.40;2.80;;;9.50;99.90;;;;;;5062054;28;20021;-90
2023/05/06 04:55:01;;;;;;;3.63;3.08;;;9.50;99.90;;;;;;5063288;28;20131;-89
2023/05/06 04:57:30;;;;;;;3.28;2.80;;;9.50;99.90;;;;;;5076575;28;20440;-90
2023/05/06 04:59:56;;;;;;;3.80;3.20;;;9.60;99.90;;;;;;5026572;28;20085;-89
2023/05/06 05:02:22;;;;;;;5.57;3.80;;;9.60;99.90;;;;;;5028654;28;20064;-90
2023/05/06 05:04:48;;;;;;;5.38;4.40;;;9.60;99.90;;;;;;5031285;28;20036;-90
2023/05/06 05:07:14;;;;;;;3.75;2.90;;;9.70;99.90;;;;;;5066885;28;20053;-89
2023/05/06 05:09:40;;;;;;;3.20;2.90;;;9.80;99.90;;;;;;5062282;28;20059;-90
2023/05/06 05:12:06;;;;;;;2.55;1.98;;;9.80;99.90;;;;;;5047663;28;20584;-90
2023/05/06 05:14:35;;;;;;;2.60;2.10;;;9.90;99.90;;;;;;5029699;28;20029;-90
2023/05/06 05:17:01;;;;;;;2.50;1.88;;;9.90;99.90;;;;;;5065507;28;20033;-90
2023/05/06 05:19:27;;;;;;;2.75;2.08;;;10.00;99.90;;;;;;5065639;28;20037;-90
2023/05/06 05:21:54;;;;;;;2.40;1.73;;;10.10;99.90;;;;;;5067281;28;20025;-90
2023/05/06 05:24:21;;;;;;;3.08;2.28;;;10.10;99.90;;;;;;5031378;28;20535;-89
2023/05/06 05:26:47;;;;;;;3.58;2.75;;;10.20;99.90;;;;;;5029914;28;20025;-90
2023/05/06 05:29:14;;;;;;;3.45;2.67;;;10.30;99.90;;;;;;5066178;28;20378;-89
2023/05/06 05:31:41;;;;;;;8.90;2.90;;;10.40;99.90;;;;;;5045212;28;20105;-89
2023/05/06 05:34:06;;;;;;;3.78;3.13;;;10.50;99.90;;;;;;5025500;28;20119;-89
2023/05/06 05:36:32;;;;;;;3.55;2.97;;;10.50;99.90;;;;;;5025899;28;20056;-90
2023/05/06 05:39:01;;;;;;;4.20;3.65;;;10.60;99.90;;;;;;5045713;28;20040;-90
2023/05/06 05:41:29;;;;;;;4.88;3.67;;;10.70;99.90;;;;;;5062490;28;20035;-89
2023/05/06 05:43:54;;;;;;;4.35;3.72;;;10.80;99.90;;;;;;5062835;28;20160;-90
2023/05/06 05:46:20;;;;;;;5.25;4.05;;;10.90;99.90;;;;;;5046337;28;20032;-90
2023/05/06 05:48:48;;;;;;;5.15;3.92;;;11.10;99.90;;;;;;5057229;28;20042;-90
2023/05/06 05:51:14;;;;;;;5.07;4.15;;;11.10;99.90;;;;;;5025085;28;20039;-89
2023/05/06 05:53:40;;;;;;;6.00;4.95;;;11.20;99.90;;;;;;5023589;28;20059;-90
2023/05/06 05:56:12;;;;;;;5.88;4.45;;;11.40;99.90;;;;;;5055895;28;20029;-89
2023/05/06 05:58:39;;;;;;;6.55;4.78;;;11.50;99.90;;;;;;5039724;28;20072;-89
2023/05/06 06:01:05;;;;;;;6.80;4.50;;;11.60;99.90;;;;;;5023486;28;20088;-89
2023/05/06 06:03:31;;;;;;;5.25;4.28;;;11.60;99.90;;;;;;5064532;28;20024;-90
2023/05/06 06:05:57;;;;;;;5.75;4.80;;;11.80;99.90;;;;;;5032131;28;20037;-89
2023/05/06 06:08:25;;;;;;;4.70;4.07;;;11.90;99.90;;;;;;5062923;28;20837;-90
2023/05/06 06:10:51;;;;;;;5.80;4.15;;;12.00;99.90;;;;;;5057217;28;20032;-90
2023/05/06 06:13:22;;;;;;;5.65;4.35;;;12.30;99.90;;;;;;5058484;28;20040;-89
2023/05/06 06:15:48;;;;;;;5.20;3.97;;;12.40;99.90;;;;;;5026981;28;20384;-90
2023/05/06 06:18:14;;;;;;;5.13;3.88;;;12.60;99.90;;;;;;5059667;28;20044;-90
2023/05/06 06:20:40;;;;;;;5.25;4.70;;;12.90;99.90;;;;;;5039881;28;20405;-90
2023/05/06 06:23:08;;;;;;;6.65;5.53;;;13.20;99.90;;;;;;5061490;28;20017;-90
2023/05/06 06:25:34;;;;;;;5.72;4.95;;;13.50;99.90;;;;;;5026160;28;20055;-90
2023/05/06 06:27:59;;;;;;;6.28;5.43;;;13.70;99.90;;;;;;5040863;28;20081;-90
2023/05/06 06:30:25;;;;;;;6.15;5.55;;;13.90;99.90;;;;;;5028610;28;20037;-90
2023/05/06 06:32:52;;;;;;;7.30;6.05;;;14.10;99.90;;;;;;5022365;28;20041;-90
2023/05/06 06:35:22;;;;;;;5.78;4.80;;;14.30;99.90;;;;;;5028337;28;20037;-90
2023/05/06 06:37:48;;;;;;;4.18;3.67;;;14.10;99.90;;;;;;5054264;28;20029;-91
2023/05/06 06:40:14;;;;;;;5.00;3.72;;;14.20;99.90;;;;;;5023688;28;20045;-91
2023/05/06 06:42:39;;;;;;;4.20;3.72;;;14.40;99.90;;;;;;5060348;28;20053;-91
2023/05/06 06:45:16;;;;;;;3.72;3.33;;;14.50;99.90;;;;;;5062588;28;20040;-91
2023/05/06 06:47:42;;;;;;;4.45;3.42;;;14.50;99.90;;;;;;5060853;28;20025;-91
2023/05/06 06:50:08;;;;;;;5.05;3.40;;;14.40;99.90;;;;;;5062833;28;20041;-91
2023/05/06 06:52:34;;;;;;;3.70;3.35;;;14.50;99.90;;;;;;5024608;28;20061;-91
2023/05/06 06:55:00;;;;;;;4.85;3.75;;;14.50;99.90;;;;;;5054882;28;20057;-90
2023/05/06 06:57:27;;;;;;;5.70;4.00;;;14.40;99.90;;;;;;5063640;28;20082;-89
2023/05/06 06:59:53;;;;;;;5.72;4.38;;;14.50;99.90;;;;;;5060082;28;20049;-91
2023/05/06 07:02:22;;;;;;;4.40;3.78;;;14.60;99.90;;;;;;5062878;28;20032;-90
2023/05/06 07:04:48;;;;;;;5.75;4.63;;;14.60;99.90;;;;;;5060281;28;20098;-90
2023/05/06 07:07:13;;;;;;;4.28;3.67;;;14.50;99.90;;;;;;5021853;28;20021;-90
2023/05/06 07:09:39;;;;;;;4.47;3.63;;;14.70;99.90;;;;;;5052873;28;20082;-90
2023/05/06 07:12:06;;;;;;;5.55;4.07;;;14.80;99.90;;;;;;5061053;28;20397;-89
2023/05/06 07:14:32;;;;;;;3.42;3.03;;;14.90;99.90;;;;;;5054478;28;20056;-90
2023/05/06 07:16:59;;;;;;;4.25;3.05;;;14.90;99.90;;;;;;5023405;28;20082;-90
2023/05/06 07:19:29;;;;;;;4.25;3.53;;;15.00;99.90;;;;;;5040995;28;20044;-90
2023/05/06 07:21:55;;;;;;;4.38;3.95;;;15.00;99.90;;;;;;5035381;28;20029;-90
2023/05/06 07:24:21;;;;;;;4.07;3.53;;;15.00;99.90;;;;;;5044540;28;20034;-90
2023/05/06 07:26:47;;;;;;;4.30;3.90;;;15.20;99.90;;;;;;5028045;28;20029;-91
2023/05/06 07:29:12;;;;;;;4.65;3.63;;;15.20;99.90;;;;;;5033153;28;20033;-90
2023/05/06 07:31:38;;;;;;;4.93;4.28;;;15.30;99.90;;;;;;5061435;28;20035;-90
2023/05/06 07:34:04;;;;;;;4.90;4.07;;;15.30;99.90;;;;;;5039957;28;20024;-90
2023/05/06 07:36:34;;;;;;;5.38;4.03;;;15.30;99.90;;;;;;5058204;28;20352;-90
2023/05/06 07:38:59;;;;;;;4.22;3.83;;;15.40;99.90;;;;;;5024692;28;20037;-90
2023/05/06 07:41:25;;;;;;;4.03;3.63;;;15.50;99.90;;;;;;5060088;28;20099;-89
2023/05/06 07:43:51;;;;;;;5.35;4.88;;;15.60;99.90;;;;;;5021644;28;20021;-89
2023/05/06 07:46:16;;;;;;;5.88;4.38;;;15.50;99.90;;;;;;5036007;28;20436;-90
2023/05/06 07:48:42;;;;;;;5.10;4.30;;;15.60;99.90;;;;;;5034478;28;20028;-90
2023/05/06 07:51:08;;;;;;;5.13;4.55;;;15.70;99.90;;;;;;5069069;28;20125;-89
2023/05/06 07:53:34;;;;;;;4.13;3.08;;;16.00;99.90;;;;;;5054102;28;20108;-89
2023/05/06 07:56:01;;;;;;;4.60;3.67;;;16.20;99.90;;;;;;5056733;28;20033;-89
2023/05/06 07:58:30;;;;;;;5.50;4.18;;;16.20;99.90;;;;;;5021992;28;20124;-90
2023/05/06 08:00:56;;;;;;;4.82;3.97;;;16.30;99.90;;;;;;5021074;28;20159;-89
2023/05/06 08:03:22;;;;;;;4.55;4.10;;;16.40;99.90;;;;;;5026996;28;20104;-89
2023/05/06 08:05:50;;;;;;;5.03;4.10;;;16.50;99.90;;;;;;5037134;28;20027;-89
2023/05/06 08:08:15;;;;;;;4.68;3.58;;;16.80;99.90;;;;;;5038291;28;20026;-89
2023/05/06 08:10:42;;;;;;;4.28;3.72;;;16.70;99.90;;;;;;5023752;28;20378;-89
2023/05/06 08:13:08;;;;;;;5.82;3.97;;;16.80;99.90;;;;;;5028040;28;20033;-90
2023/05/06 08:15:34;;;;;;;4.20;3.60;;;16.80;99.90;;;;;;5043999;28;20038;-88
2023/05/06 08:18:00;;;;;;;4.82;4.20;;;17.10;99.90;;;;;;5056761;28;20033;-89
2023/05/06 08:20:26;;;;;;;5.10;4.00;;;17.10;99.90;;;;;;5056999;28;20098;-89
2023/05/06 08:22:52;;;;;;;4.25;3.60;;;17.10;99.90;;;;;;5069811;28;20025;-89
2023/05/06 08:25:18;;;;;;;5.20;3.00;;;17.40;99.90;;;;;;5041251;28;20454;-88
2023/05/06 08:27:44;;;;;;;5.40;4.00;;;17.30;99.90;;;;;;5021643;28;20034;-89
2023/05/06 08:30:10;;;;;;;3.70;2.97;;;17.40;99.90;;;;;;5039666;28;20132;-89
2023/05/06 08:32:38;;;;;;;4.00;3.13;;;17.40;99.90;;;;;;5042398;28;20087;-88
2023/05/06 08:35:04;;;;;;;4.07;3.08;;;17.60;99.90;;;;;;5020308;28;20169;-89
2023/05/06 08:37:30;;;;;;;4.97;3.95;;;17.70;99.90;;;;;;5024289;28;20501;-89
2023/05/06 08:39:56;;;;;;;5.43;4.20;;;17.60;99.90;;;;;;5028705;28;20087;-87
2023/05/06 08:42:24;;;;;;;3.88;3.33;;;17.60;99.90;;;;;;5055910;28;20535;-88
2023/05/06 08:44:51;;;;;;;3.25;2.35;;;17.80;99.90;;;;;;5072532;28;20022;-89
2023/05/06 08:47:20;;;;;;;3.53;2.53;;;18.10;99.90;;;;;;5062252;28;20037;-90
2023/05/06 08:49:46;;;;;;;2.97;1.75;;;18.30;99.90;;;;;;5041156;28;20029;-90
2023/05/06 08:52:13;;;;;;;4.60;2.80;;;18.50;99.90;;;;;;5025943;28;20040;-89
2023/05/06 08:54:40;;;;;;;4.00;2.40;;;18.90;99.90;;;;;;5040130;28;20074;-90
2023/05/06 08:57:10;;;;;;;3.70;2.30;;;18.80;99.90;;;;;;5060920;28;20037;-91
2023/05/06 08:59:36;;;;;;;4.15;2.92;;;19.00;99.90;;;;;;5057676;28;20049;-90
2023/05/06 09:02:03;;;;;;;3.05;2.17;;;19.40;99.90;;;;;;5041580;28;20131;-90
2023/05/06 09:04:30;;;;;;;2.42;1.83;;;19.30;99.90;;;;;;5026396;28;20080;-90
2023/05/06 09:06:57;;;;;;;2.83;1.70;;;19.30;99.90;;;;;;5076527;28;20037;-90
2023/05/06 09:09:24;;;;;;;2.92;1.63;;;19.50;99.90;;;;;;5063396;28;20029;-88
2023/05/06 09:11:52;;;;;;;2.85;2.08;;;19.50;99.90;;;;;;5023595;28;20034;-90
2023/05/06 09:14:20;;;;;;;2.33;1.42;;;19.40;99.90;;;;;;5058226;28;20064;-89
2023/05/06 09:16:48;;;;;;;3.60;2.00;;;19.30;99.90;;;;;;5038167;28;20181;-90
2023/05/06 09:19:15;;;;;;;3.28;1.52;;;19.50;99.90;;;;;;5028204;28;20037;-89
2023/05/06 09:21:43;;;;;;;2.30;1.27;;;20.00;99.90;;;;;;5074138;28;20171;-89
2023/05/06 09:24:11;;;;;;;3.88;2.17;;;19.60;99.90;;;;;;5064005;28;20025;-91
2023/05/06 09:26:39;;;;;;;2.28;1.63;;;19.70;99.90;;;;;;5064122;28;20108;-89
2023/05/06 09:29:05;;;;;;;3.28;1.45;;;20.30;99.90;;;;;;5074848;28;20119;-89
2023/05/06 09:31:34;;;;;;;2.45;1.48;;;20.80;99.90;;;;;;5055441;28;20501;-89
2023/05/06 09:33:59;;;;;;;3.05;1.70;;;20.70;99.90;;;;;;5024522;28;20106;-91
2023/05/06 09:36:27;;;;;;;3.25;1.90;;;20.40;99.90;;;;;;5022595;28;20079;-89
2023/05/06 09:38:56;;;;;;;3.42;1.20;;;20.60;99.90;;;;;;5021707;28;20021;-90
2023/05/06 09:41:24;;;;;;;3.25;1.73;;;21.00;99.90;;;;;;5074513;28;20036;-89
2023/05/06 09:43:54;;;;;;;2.38;0.85;;;20.50;99.90;;;;;;5063262;28;20039;-90
2023/05/06 09:46:20;;;;;;;;;;;21.10;99.90;;;;;;5028655;28;20052;-90
2023/05/06 09:48:46;;;;;;;2.25;0.70;;;21.40;99.90;;;;;;5041246;28;20014;-91
2023/05/06 09:51:15;;;;;;;2.78;1.10;;;21.60;99.90;;;;;;5029154;28;20100;-90
2023/05/06 09:53:43;;;;;;;2.95;0.73;;;21.60;99.90;;;;;;5029299;28;20087;-91
2023/05/06 09:56:09;;;;;;;2.30;1.02;;;21.70;99.90;;;;;;5063426;28;20025;-91
2023/05/06 09:58:36;;;;;;;2.60;0.90;;;21.60;99.90;;;;;;5022672;28;20049;-91
2023/05/06 10:01:06;;;;;;;2.15;1.10;;;21.60;99.90;;;;;;5024502;28;20041;-90
2023/05/06 10:03:33;;;;;;;3.03;1.13;;;20.90;99.90;;;;;;5063254;28;20025;-90
2023/05/06 10:06:04;;;;;;;2.00;0.75;;;20.60;99.90;;;;;;5040023;28;20060;-90
2023/05/06 10:08:32;;;;;;;1.70;0.60;;;20.80;99.90;;;;;;5063316;28;20544;-89
2023/05/06 10:11:00;;;;;;;2.22;0.60;;;20.90;99.90;;;;;;5063873;28;20374;-91
2023/05/06 10:13:26;;;;;;;2.63;0.65;;;21.30;99.90;;;;;;5019759;28;20065;-91
2023/05/06 10:15:52;;;;;;;2.33;0.50;;;21.40;99.90;;;;;;5073954;28;20470;-91
2023/05/06 10:18:20;;;;;;;1.77;0.50;;;21.80;99.90;;;;;;5061829;28;20124;-91
2023/05/06 10:20:47;;;;;;;2.35;0.50;;;22.10;99.90;;;;;;5058848;28;20087;-91
2023/05/06 10:24:02;;;;;;;2.25;0.47;;;22.00;99.90;;;;;;5025867;28;20051;-91
2023/05/06 10:26:30;;;;;;;1.50;0.55;;;22.10;99.90;;;;;;5005597;28;20065;-90
2023/05/06 10:28:58;;;;;;;1.70;0.65;;;22.10;99.90;;;;;;4993151;28;20549;-91
2023/05/06 10:31:25;;;;;;;2.03;0.70;;;22.40;99.90;;;;;;5008925;28;20171;-90
2023/05/06 10:33:55;;;;;;;1.83;0.75;;;22.50;99.90;;;;;;5009610;28;20036;-91
2023/05/06 10:36:27;;;;;;;1.65;0.70;;;22.30;99.90;;;;;;5021601;28;20116;-90
2023/05/06 10:38:55;;;;;;;1.65;0.60;;;22.60;99.90;;;;;;5009283;28;20035;-91
2023/05/06 10:41:23;;;;;;;2.28;0.52;;;22.60;99.90;;;;;;5005339;28;20045;-90
2023/05/06 10:43:55;;;;;;;1.65;0.50;;;23.00;99.90;;;;;;5024883;28;20030;-90
2023/05/06 10:46:22;;;;;;;2.28;0.50;;;23.40;99.90;;;;;;5008710;28;20163;-90
2023/05/06 10:49:05;;;;;;;1.73;0.40;;;23.00;99.90;;;;;;4992428;28;20040;-91
2023/05/06 10:51:37;;;;;;;1.02;0.40;;;22.80;99.90;;;;;;5006595;28;20029;-91
2023/05/06 10:54:05;;;;;;;1.27;0.40;;;22.90;99.90;;;;;;5005067;28;20056;-91
2023/05/06 10:56:33;;;;;;;1.00;0.40;;;22.80;99.90;;;;;;4998547;28;20514;-91
2023/05/06 10:59:08;;;;;;;3.65;0.60;;;22.90;99.90;;;;;;5007467;28;20053;-91
2023/05/06 11:01:38;;;;;;;1.75;0.50;;;22.30;99.90;;;;;;5052475;28;20139;-92
2023/05/06 11:04:05;;;;;;;2.47;0.40;;;21.90;99.90;;;;;;5071019;28;20024;-93
2023/05/06 11:06:45;;;;;;;1.02;0.30;;;22.10;99.90;;;;;;5034610;28;20084;-91
2023/05/06 11:09:19;;;;;;;2.10;0.50;;;22.40;99.90;;;;;;5052816;28;20045;-92
2023/05/06 11:11:51;;;;;;;1.65;0.60;;;22.00;99.90;;;;;;5069816;28;20086;-91
2023/05/06 11:14:36;;;;;;;2.35;0.50;;;22.70;99.90;;;;;;5020818;28;20044;-91
2023/05/06 11:17:07;;;;;;;1.00;0.30;;;22.70;99.90;;;;;;5038833;28;20116;-91
2023/05/06 11:19:33;;;;;;;0.52;0.30;;;23.10;99.90;;;;;;5055445;28;20076;-91
2023/05/06 11:22:01;;;;;;;2.65;0.50;;;23.40;99.90;;;;;;5039037;28;20043;-91
2023/05/06 11:24:29;;;;;;;1.10;0.40;;;23.20;99.90;;;;;;5038689;28;20041;-90
2023/05/06 11:26:57;;;;;;;1.77;0.50;;;23.30;99.90;;;;;;5037967;28;20504;-90
2023/05/06 11:29:23;;;;;;;2.03;0.40;;;23.30;99.90;;;;;;5060581;28;20025;-91
2023/05/06 11:31:51;;;;;;;1.60;0.30;;;23.60;99.90;;;;;;5021709;28;20458;-91
2023/05/06 11:34:29;;;;;;;1.23;0.40;;;23.60;99.90;;;;;;5072812;28;20350;-91
2023/05/06 11:37:02;;;;;;;1.85;0.40;;;23.60;99.90;;;;;;5057562;28;20032;-91
2023/05/06 11:39:30;;;;;;;0.90;0.40;;;23.30;99.90;;;;;;5053712;28;20033;-92
2023/05/06 11:42:05;;;;;;;4.05;0.50;;;23.20;99.90;;;;;;5022386;28;20052;-92
2023/05/06 11:44:36;;;;;;;2.85;0.40;;;22.90;99.90;;;;;;5055365;28;20437;-92
2023/05/06 11:47:04;;;;;;;1.40;0.40;;;23.40;99.90;;;;;;5021358;28;20025;-92
2023/05/06 11:49:41;;;;;;;1.50;0.45;;;23.50;99.90;;;;;;5057219;28;20025;-93
2023/05/06 11:52:08;;;;;;;2.15;0.77;;;23.10;99.90;;;;;;5039213;28;20021;-92
2023/05/06 11:54:37;;;;;;;1.25;0.30;;;23.00;99.90;;;;;;5058814;28;20036;-93
2023/05/06 11:57:02;;;;;;;0.95;0.30;;;23.40;99.90;;;;;;5038351;28;20053;-91
2023/05/06 11:59:33;;;;;;;1.30;0.40;;;23.50;99.90;;;;;;5019922;28;20083;-92
2023/05/06 12:02:01;;;;;;;1.17;0.43;;;23.70;99.90;;;;;;5061785;28;20029;-92
2023/05/06 12:04:35;;;;;;;1.42;0.50;;;23.30;99.90;;;;;;5042459;28;20085;-91
2023/05/06 12:07:03;;;;;;;1.50;0.60;;;22.90;99.90;;;;;;5042636;28;20029;-93
2023/05/06 12:09:29;;;;;;;1.77;0.50;;;23.00;99.90;;;;;;5057554;28;20025;-91
2023/05/06 12:11:55;;;;;;;2.10;0.43;;;23.10;99.90;;;;;;5058558;28;20025;-91
2023/05/06 12:14:21;;;;;;;2.15;0.40;;;23.00;99.90;;;;;;5027195;28;20035;-91
2023/05/06 12:16:47;;;;;;;1.48;0.65;;;22.80;99.90;;;;;;5061945;28;20025;-93
2023/05/06 12:19:16;;;;;;;1.00;0.40;;;22.50;99.90;;;;;;5026200;28;20033;-92
2023/05/06 12:21:42;;;;;;;1.60;0.60;;;22.50;99.90;;;;;;5057138;28;20444;-92
2023/05/06 12:24:08;;;;;;;1.98;0.50;;;22.30;99.90;;;;;;5064126;28;20287;-93
2023/05/06 12:26:45;;;;;;;1.65;0.55;;;22.60;99.90;;;;;;5030241;28;20025;-92
2023/05/06 12:29:14;;;;;;;1.27;0.50;;;23.00;99.90;;;;;;5059922;28;20083;-93
2023/05/06 12:31:41;;;;;;;1.10;0.40;;;23.00;99.90;;;;;;5059580;28;20196;-92
2023/05/06 12:34:07;;;;;;;1.42;0.40;;;23.40;99.90;;;;;;5037365;28;20029;-92
2023/05/06 12:36:42;;;;;;;1.75;0.60;;;23.60;99.90;;;;;;5054392;28;20036;-92
2023/05/06 12:39:08;;;;;;;1.17;0.40;;;23.30;99.90;;;;;;5059341;28;20028;-93
2023/05/06 12:41:37;;;;;;;1.33;0.30;;;23.50;99.90;;;;;;5017915;28;20037;-92
2023/05/06 12:44:30;;;;;;;1.63;0.40;;;23.10;99.90;;;;;;5035295;28;20024;-93
2023/05/06 12:46:55;;;;;;;0.93;0.38;;;22.80;99.90;;;;;;5035039;28;20029;-91
2023/05/06 12:49:21;;;;;;;1.25;0.40;;;22.80;99.90;;;;;;5018978;28;20486;-93
2023/05/06 12:52:07;;;;;;;1.67;0.50;;;22.80;99.90;;;;;;5020795;28;20108;-91
2023/05/06 12:54:32;;;;;;;1.30;0.40;;;22.70;99.90;;;;;;5050782;28;20097;-93